KMTH/MTH METAR and TAF weather

Enter ICAO airport designator
Station Type Date Time Source
KMTH METAR 2021/03/02 12:53 UTC NOAA

KMTH 021253Z AUTO 15006KT 10SM CLR 24/21 A3005 RMK AO2 SLP175 T02440206


Station Type Date Time Source
KMTH Decoded METAR 2021/03/02 12:53 UTC NOAA

MARATHON AIRPORT, FL, United States (KMTH) 24-44N 81-03W 2M
Mar 02, 2021 - 07:53 AM EST / 2021.03.02 1253 UTC
Wind: from the SSE (150 degrees) at 7 MPH (6 KT):0
Visibility: 10 mile(s):0
Sky conditions: clear
Temperature: 75.9 F (24.4 C)
Dew Point: 69.1 F (20.6 C)
Relative Humidity: 79%
Pressure (altimeter): 30.05 in. Hg (1017 hPa)
ob: KMTH 021253Z AUTO 15006KT 10SM CLR 24/21 A3005 RMK AO2 SLP175 T02440206
cycle: 13

Station Type Date Time Source
KMTH TAF 2021/03/02 12:27 UTC NOAA

TAF KMTH 021124Z 0212/0312 14006KT P6SM SCT025

Example: see airport list